createdAt,value
2022-07-25T00:00:29.751Z,96567.06
2022-07-25T14:05:40.093Z,96082.13
2022-07-25T14:08:08.221Z,96086.00
2022-07-25T14:10:35.906Z,96082.41
2022-07-25T14:13:03.552Z,96085.44
2022-07-25T14:15:31.227Z,96081.97
2022-07-25T14:17:58.775Z,96068.44
2022-07-25T14:45:25.496Z,96067.94
2022-07-25T14:48:08.388Z,96069.91
2022-07-25T14:50:37.135Z,96074.94
2022-07-25T14:53:40.787Z,96077.25
2022-07-25T14:56:32.688Z,96062.97
2022-07-25T14:59:44.211Z,96064.00
2022-07-25T15:02:35.369Z,96063.22
2022-07-25T15:05:13.376Z,96058.91
2022-07-25T15:07:51.703Z,96063.88
2022-07-25T15:10:28.614Z,96077.41
2022-07-25T15:16:10.788Z,96075.28
2022-07-25T15:29:21.407Z,96126.66
2022-07-25T15:31:49.241Z,96131.84
2022-07-25T15:34:17.230Z,96182.69
2022-07-25T15:36:44.924Z,96115.56
2022-07-25T15:39:12.764Z,96104.94
2022-07-25T15:41:40.504Z,96145.50
2022-07-25T15:44:08.171Z,96178.84
2022-07-25T15:46:39.968Z,96172.47
2022-07-25T15:49:07.989Z,96180.44
2022-07-25T15:51:36.422Z,96177.63
2022-07-25T15:54:04.299Z,96173.44
2022-07-25T15:56:32.064Z,96169.22
2022-07-25T15:58:59.913Z,96183.50
2022-07-25T16:01:28.095Z,96162.78
2022-07-25T16:03:59.829Z,96153.59
2022-07-25T16:06:27.739Z,96145.38
2022-07-25T16:08:56.102Z,96139.38
2022-07-25T16:11:23.911Z,96140.03
2022-07-25T16:13:51.674Z,96132.59
2022-07-25T16:16:22.038Z,96129.75
2022-07-25T16:18:50.055Z,96134.97
2022-07-25T16:21:19.239Z,96126.91
2022-07-25T16:23:47.029Z,96119.34
2022-07-25T16:26:14.778Z,96123.78
2022-07-25T16:28:42.736Z,96110.50
2022-07-25T16:31:10.569Z,96115.72
2022-07-25T16:33:38.376Z,96114.00
2022-07-25T16:36:06.438Z,96103.91
2022-07-25T16:38:35.639Z,96106.91
2022-07-25T16:41:03.416Z,96097.53
2022-07-25T16:43:31.130Z,96092.47
2022-07-25T16:45:58.864Z,96098.63
2022-07-25T16:48:26.559Z,96092.47
2022-07-25T16:50:54.427Z,96085.19
2022-07-25T16:53:22.501Z,96095.16
2022-07-25T16:55:51.614Z,96093.25
2022-07-25T16:58:19.427Z,96090.56
2022-07-25T17:00:47.254Z,96086.16
2022-07-25T17:03:16.260Z,96083.47
2022-07-25T17:05:44.083Z,96087.75
2022-07-25T17:08:11.870Z,96088.22
2022-07-25T17:10:40.152Z,96092.47
2022-07-25T17:13:09.515Z,96103.25
2022-07-25T17:15:37.357Z,96107.53
2022-07-25T17:18:05.608Z,96101.03
2022-07-25T17:20:33.302Z,96104.19
2022-07-25T17:23:01.287Z,96107.66
2022-07-25T17:25:29.180Z,96109.56
2022-07-25T17:27:57.050Z,96097.22
2022-07-25T17:30:27.259Z,96096.75
2022-07-25T17:32:55.031Z,96099.00
2022-07-25T17:35:22.804Z,96105.00
2022-07-25T17:37:50.583Z,96097.06
2022-07-25T17:40:18.398Z,96104.19
2022-07-25T17:42:47.650Z,96105.31
2022-07-25T17:45:15.997Z,96105.47
2022-07-25T17:47:45.426Z,96112.94
2022-07-25T17:50:14.083Z,96119.59
2022-07-25T17:52:41.715Z,96116.25
2022-07-25T17:55:10.201Z,96132.25
2022-07-25T17:57:38.034Z,96124.03
2022-07-25T18:00:06.918Z,96122.00
2022-07-25T18:02:34.676Z,96130.38
2022-07-25T18:05:03.866Z,96137.16
2022-07-25T18:07:31.568Z,96128.31
2022-07-25T18:10:01.035Z,96139.38
2022-07-25T18:12:29.519Z,96147.75
2022-07-25T18:14:57.452Z,96149.66
2022-07-25T18:17:25.155Z,96152.66
2022-07-25T18:19:52.733Z,96156.13
2022-07-25T18:22:21.715Z,96154.88
2022-07-25T18:24:49.461Z,96154.09
2022-07-25T18:27:17.239Z,96147.94
2022-07-25T18:29:44.929Z,96151.41
2022-07-25T18:32:12.620Z,96145.53
2022-07-25T18:34:40.279Z,96150.91
2022-07-25T18:37:07.963Z,96157.41
2022-07-25T18:39:37.132Z,96155.03
2022-07-25T18:42:04.941Z,96153.75
2022-07-25T18:44:32.940Z,96159.13
2022-07-25T18:47:02.086Z,96149.78
2022-07-25T18:49:29.784Z,96153.88
2022-07-25T18:51:57.586Z,96151.34
2022-07-25T18:54:25.261Z,96155.78
2022-07-25T18:56:54.330Z,96162.56
2022-07-25T18:59:24.016Z,96160.84
2022-07-25T19:01:53.235Z,96157.50
2022-07-25T19:04:20.978Z,96173.47
2022-07-25T19:06:49.940Z,96179.44
2022-07-25T19:09:17.995Z,96183.88
2022-07-25T19:11:45.622Z,96179.75
2022-07-25T19:14:14.891Z,96181.78
2022-07-25T19:16:42.855Z,96184.63
2022-07-25T19:19:10.944Z,96186.63
2022-07-25T19:21:38.798Z,96185.66
2022-07-25T19:24:07.679Z,96186.88
2022-07-25T19:26:35.696Z,96195.09
2022-07-25T19:29:03.298Z,96206.28
2022-07-25T19:31:32.541Z,96222.19
2022-07-25T19:34:00.189Z,96222.03
2022-07-25T19:36:27.831Z,96224.53
2022-07-25T19:38:55.490Z,96228.44
2022-07-25T19:41:23.226Z,96230.28
2022-07-25T19:43:52.416Z,96246.53
2022-07-25T19:46:20.191Z,96241.88
2022-07-25T19:48:50.224Z,96254.00
2022-07-25T19:51:18.005Z,96261.97
2022-07-25T19:53:45.636Z,96260.81
2022-07-25T19:56:13.237Z,96261.22
2022-07-25T19:58:43.483Z,96267.78
2022-07-25T20:01:11.697Z,96272.50
2022-07-25T20:03:39.365Z,96271.03
2022-07-25T20:06:08.994Z,96275.41
2022-07-25T20:08:37.087Z,96268.88
2022-07-25T20:11:04.900Z,96267.88
2022-07-25T20:13:32.568Z,96280.75
2022-07-25T20:16:00.399Z,96285.13
2022-07-25T20:18:28.084Z,96288.72
2022-07-25T20:20:55.691Z,96291.81
2022-07-25T20:23:25.436Z,96297.25
2022-07-25T20:25:53.265Z,96304.31
2022-07-25T20:28:20.838Z,96306.78
2022-07-25T20:30:48.577Z,96311.16
2022-07-25T20:33:17.228Z,96313.16
2022-07-25T20:35:45.220Z,96310.56
2022-07-25T20:38:12.841Z,96313.63
2022-07-25T20:40:49.304Z,96319.88
2022-07-25T20:43:17.718Z,96322.66
2022-07-25T20:45:45.718Z,96312.50
2022-07-25T20:48:15.212Z,96311.47
2022-07-25T20:50:43.297Z,96321.50
2022-07-25T20:53:11.324Z,96320.78
2022-07-25T20:55:39.280Z,96333.16
2022-07-25T20:58:08.230Z,96323.66
2022-07-25T21:00:35.899Z,96325.91
2022-07-25T21:03:03.739Z,96333.25
2022-07-25T21:05:31.521Z,96333.28
2022-07-25T21:07:59.127Z,96341.13
2022-07-25T21:10:27.108Z,96351.03
2022-07-25T21:12:56.616Z,96352.13
2022-07-25T21:15:25.833Z,96359.13
2022-07-25T21:17:53.437Z,96359.41
2022-07-25T21:20:21.003Z,96365.66
2022-07-25T21:22:48.683Z,96367.53
2022-07-25T21:25:16.326Z,96372.38
2022-07-25T21:27:44.015Z,96373.75
2022-07-25T21:30:12.700Z,96377.78
2022-07-25T21:32:42.477Z,96391.19
2022-07-25T21:35:10.395Z,96398.25
2022-07-25T21:37:38.098Z,96402.25
2022-07-25T21:40:06.498Z,96406.31
2022-07-25T21:42:34.066Z,96404.22
2022-07-25T21:45:01.576Z,96398.94
2022-07-25T21:47:29.078Z,96398.22
2022-07-25T21:50:15.403Z,96396.13
2022-07-25T21:52:52.366Z,96400.72
2022-07-25T21:55:20.899Z,96408.25
2022-07-25T21:57:48.928Z,96408.00
2022-07-25T22:00:16.844Z,96414.22
2022-07-25T22:02:45.656Z,96418.25
2022-07-25T22:05:15.916Z,96420.69
2022-07-25T22:07:44.649Z,96415.41
2022-07-25T22:10:13.863Z,96417.06
2022-07-25T22:12:41.890Z,96418.44
2022-07-25T22:15:12.127Z,96422.72
2022-07-25T22:17:48.945Z,96429.44
2022-07-25T22:20:19.125Z,96430.53
2022-07-25T22:22:47.107Z,96435.34
2022-07-25T22:25:14.726Z,96441.75
2022-07-25T22:27:42.279Z,96443.66
2022-07-25T22:30:16.391Z,96447.69
2022-07-25T22:32:46.178Z,96445.56
2022-07-25T22:35:13.900Z,96458.97
2022-07-25T22:37:42.760Z,96461.19
2022-07-25T22:40:11.182Z,96462.81
2022-07-25T22:42:38.786Z,96464.19
2022-07-25T22:45:07.798Z,96463.38
2022-07-25T22:47:35.377Z,96456.97
2022-07-25T22:50:04.042Z,96464.97
2022-07-25T22:52:31.653Z,96473.00
2022-07-25T22:55:00.525Z,96475.94
2022-07-25T22:57:28.076Z,96473.03
2022-07-25T22:59:55.582Z,96488.03
2022-07-25T23:02:24.113Z,96495.78
2022-07-25T23:04:51.664Z,96508.91
2022-07-25T23:07:19.203Z,96511.03
2022-07-25T23:09:46.702Z,96512.66
2022-07-25T23:12:15.555Z,96516.13
2022-07-25T23:14:43.107Z,96522.25
2022-07-25T23:17:20.053Z,96525.75
2022-07-25T23:19:49.017Z,96534.53
2022-07-25T23:22:17.191Z,96538.25
2022-07-25T23:24:45.577Z,96545.75
2022-07-25T23:27:13.754Z,96544.38
2022-07-25T23:29:43.315Z,96541.44
2022-07-25T23:32:10.882Z,96548.38
2022-07-25T23:34:38.560Z,96547.31
2022-07-25T23:37:06.209Z,96540.88
2022-07-25T23:39:33.887Z,96544.09
2022-07-25T23:42:02.366Z,96538.25
2022-07-25T23:44:30.166Z,96535.06
2022-07-25T23:46:59.847Z,96540.09
2022-07-25T23:49:29.051Z,96539.03
2022-07-25T23:51:57.203Z,96531.28
2022-07-25T23:54:25.594Z,96537.16
2022-07-25T23:56:53.304Z,96524.59
2022-07-25T23:59:21.001Z,96534.22
